createdAt,value
2019-03-23T00:00:18.539Z,72.30
2019-03-23T00:02:49.817Z,72.30
2019-03-23T00:05:20.869Z,72.20
2019-03-23T00:07:51.947Z,72.40
2019-03-23T00:10:23.007Z,72.60
2019-03-23T00:12:54.000Z,72.60
2019-03-23T00:15:25.029Z,73.10
2019-03-23T00:17:56.076Z,73.50
2019-03-23T00:20:27.089Z,73.60
2019-03-23T00:22:58.175Z,73.80
2019-03-23T00:25:29.155Z,74.00
2019-03-23T00:28:00.482Z,73.80
2019-03-23T00:30:31.617Z,73.90
2019-03-23T00:33:02.964Z,74.10
2019-03-23T00:35:34.333Z,74.00
2019-03-23T00:38:05.348Z,74.20
2019-03-23T00:40:36.339Z,74.40
2019-03-23T00:43:07.403Z,74.40
2019-03-23T00:45:38.454Z,74.70
2019-03-23T00:48:09.732Z,75.10
2019-03-23T00:50:40.749Z,75.10
2019-03-23T00:53:11.855Z,75.20
2019-03-23T00:55:42.896Z,75.50
2019-03-23T00:58:14.306Z,75.60
2019-03-23T01:00:45.308Z,75.40
2019-03-23T01:03:16.417Z,75.40
2019-03-23T01:05:47.550Z,75.30
2019-03-23T01:08:18.604Z,75.60
2019-03-23T01:10:49.579Z,75.60
2019-03-23T01:13:21.690Z,75.60
2019-03-23T01:15:52.672Z,75.80
2019-03-23T01:18:23.917Z,76.30
2019-03-23T01:20:54.934Z,76.50
2019-03-23T01:23:26.304Z,76.50
2019-03-23T01:25:57.315Z,77.30
2019-03-23T01:28:29.514Z,76.50
2019-03-23T01:31:00.505Z,76.70
2019-03-23T01:33:32.024Z,76.70
2019-03-23T01:36:03.031Z,76.80
2019-03-23T01:38:34.213Z,77.10
2019-03-23T01:41:05.262Z,77.10
2019-03-23T01:43:42.321Z,77.00
2019-03-23T01:46:28.919Z,77.50
2019-03-23T01:49:04.207Z,77.40
2019-03-23T01:51:46.420Z,77.20
2019-03-23T01:54:17.886Z,77.20
2019-03-23T01:56:49.084Z,77.60
2019-03-23T01:59:20.132Z,77.90
2019-03-23T02:01:51.165Z,77.90
2019-03-23T02:04:22.333Z,78.10
2019-03-23T02:06:53.394Z,77.90
2019-03-23T02:09:24.640Z,78.10
2019-03-23T02:11:55.716Z,78.10
2019-03-23T02:14:26.891Z,77.90
2019-03-23T02:16:57.893Z,78.10
2019-03-23T02:19:28.997Z,78.20
2019-03-23T02:22:00.089Z,78.30
2019-03-23T02:24:31.148Z,78.40
2019-03-23T02:27:02.176Z,78.30
2019-03-23T02:29:33.426Z,78.30
2019-03-23T02:32:04.531Z,78.50
2019-03-23T02:34:35.609Z,79.00
2019-03-23T02:37:06.607Z,79.30
2019-03-23T02:39:38.199Z,79.40
2019-03-23T02:42:09.277Z,79.40
2019-03-23T02:44:40.706Z,79.70
2019-03-23T02:47:12.243Z,79.70
2019-03-23T02:49:43.322Z,79.70
2019-03-23T02:52:14.357Z,80.10
2019-03-23T02:54:45.572Z,80.20
2019-03-23T02:57:16.595Z,79.90
2019-03-23T02:59:47.646Z,80.00
2019-03-23T03:02:18.725Z,80.50
2019-03-23T03:04:50.348Z,80.60
2019-03-23T03:07:21.392Z,80.80
2019-03-23T03:09:52.462Z,81.10
2019-03-23T03:12:23.696Z,80.90
2019-03-23T03:14:55.367Z,80.90
2019-03-23T03:17:26.539Z,80.70
2019-03-23T03:19:57.624Z,80.70
2019-03-23T03:22:28.789Z,80.20
2019-03-23T03:24:59.935Z,80.30
2019-03-23T03:27:31.437Z,80.00
2019-03-23T03:30:02.618Z,79.90
2019-03-23T03:32:34.933Z,80.00
2019-03-23T03:35:06.471Z,80.30
2019-03-23T03:37:37.716Z,80.10
2019-03-23T03:40:09.263Z,80.50
2019-03-23T03:42:40.634Z,80.50
2019-03-23T03:45:15.291Z,80.30
2019-03-23T03:47:46.669Z,80.60
2019-03-23T03:50:17.701Z,80.50
2019-03-23T03:52:48.779Z,80.50
2019-03-23T03:55:20.844Z,80.50
2019-03-23T03:57:51.959Z,80.50
2019-03-23T04:00:23.013Z,80.70
2019-03-23T04:02:54.099Z,80.60
2019-03-23T04:05:25.313Z,80.70
2019-03-23T04:08:09.894Z,81.40
2019-03-23T04:10:29.196Z,80.60
2019-03-23T04:13:00.320Z,80.70
2019-03-23T04:15:31.361Z,80.80
2019-03-23T04:18:02.358Z,80.70
2019-03-23T04:20:33.495Z,81.00
2019-03-23T04:23:04.822Z,81.00
2019-03-23T04:25:35.864Z,81.10
2019-03-23T04:28:06.924Z,81.40
2019-03-23T04:30:37.952Z,81.70
2019-03-23T04:33:09.125Z,81.50
2019-03-23T04:35:40.148Z,81.80
2019-03-23T04:38:22.161Z,81.80
2019-03-23T04:40:44.557Z,81.90
2019-03-23T04:43:15.532Z,82.00
2019-03-23T04:45:46.608Z,82.10
2019-03-23T04:48:17.877Z,82.00
2019-03-23T04:50:48.913Z,82.00
2019-03-23T04:53:19.915Z,82.00
2019-03-23T04:55:50.921Z,82.10
2019-03-23T04:58:21.940Z,82.40
2019-03-23T05:00:52.999Z,82.30
2019-03-23T05:03:24.023Z,82.50
2019-03-23T05:05:55.053Z,82.60
2019-03-23T05:08:33.427Z,82.60
2019-03-23T05:10:58.778Z,82.60
2019-03-23T05:13:29.798Z,82.60
2019-03-23T05:16:00.800Z,82.60
2019-03-23T05:18:31.797Z,82.80
2019-03-23T05:21:02.860Z,82.80
2019-03-23T05:23:33.934Z,82.60
2019-03-23T05:26:04.959Z,83.00
2019-03-23T05:28:35.998Z,83.10
2019-03-23T05:31:07.220Z,83.10
2019-03-23T05:33:38.277Z,83.10
2019-03-23T05:36:09.429Z,83.40
2019-03-23T05:38:44.718Z,83.20
2019-03-23T05:41:13.182Z,83.10
2019-03-23T05:43:44.143Z,83.00
2019-03-23T05:46:15.936Z,83.20
2019-03-23T05:48:46.958Z,83.20
2019-03-23T05:51:18.067Z,83.20
2019-03-23T05:53:49.232Z,83.40
2019-03-23T05:56:20.533Z,83.40
2019-03-23T05:58:51.537Z,83.30
2019-03-23T06:01:22.593Z,83.40
2019-03-23T06:03:54.028Z,83.50
2019-03-23T06:06:25.163Z,83.40
2019-03-23T06:08:56.568Z,83.50
2019-03-23T06:11:27.676Z,84.10
2019-03-23T06:13:58.728Z,84.20
2019-03-23T06:16:29.777Z,84.10
2019-03-23T06:19:01.215Z,84.10
2019-03-23T06:21:32.818Z,84.60
2019-03-23T06:24:03.879Z,84.70
2019-03-23T06:26:36.294Z,84.20
2019-03-23T06:29:07.789Z,84.20
2019-03-23T06:31:38.829Z,84.30
2019-03-23T06:34:09.880Z,84.30
2019-03-23T06:36:40.884Z,84.10
2019-03-23T06:39:11.997Z,84.10
2019-03-23T06:41:43.004Z,84.10
2019-03-23T06:44:14.005Z,83.80
2019-03-23T06:46:52.962Z,83.30
2019-03-23T06:49:24.210Z,83.30
2019-03-23T06:51:55.301Z,83.00
2019-03-23T06:54:28.395Z,82.90
2019-03-23T06:57:01.070Z,82.80
2019-03-23T06:59:33.636Z,82.20
2019-03-23T07:02:04.677Z,81.80
2019-03-23T07:04:35.994Z,81.50
2019-03-23T07:07:07.289Z,81.20
2019-03-23T07:09:38.363Z,81.10
2019-03-23T07:12:09.487Z,81.10
2019-03-23T07:14:40.493Z,81.10
2019-03-23T07:17:11.559Z,80.80
2019-03-23T07:19:42.785Z,80.80
2019-03-23T07:22:14.130Z,80.50
2019-03-23T07:24:45.134Z,80.00
2019-03-23T07:27:16.397Z,79.60
2019-03-23T07:29:47.537Z,79.50
2019-03-23T07:32:18.829Z,79.00
2019-03-23T07:34:50.137Z,78.80
2019-03-23T07:37:21.171Z,78.50
2019-03-23T07:39:52.573Z,78.10
2019-03-23T07:42:23.619Z,77.90
2019-03-23T07:44:55.067Z,77.40
2019-03-23T07:47:26.170Z,77.20
2019-03-23T07:49:57.203Z,77.10
2019-03-23T07:52:28.664Z,76.80
2019-03-23T07:55:05.841Z,76.80
2019-03-23T07:57:36.922Z,76.40
2019-03-23T08:00:09.012Z,75.50
2019-03-23T08:02:40.375Z,75.30
2019-03-23T08:05:11.588Z,75.00
2019-03-23T08:07:42.654Z,74.70
2019-03-23T08:10:26.013Z,73.80
2019-03-23T08:12:55.737Z,73.50
2019-03-23T08:15:25.954Z,73.00
2019-03-23T08:17:55.910Z,73.00
2019-03-23T08:20:25.381Z,72.90
2019-03-23T08:22:55.230Z,73.10
2019-03-23T08:25:24.893Z,72.30
2019-03-23T08:27:54.592Z,72.30
2019-03-23T08:30:24.277Z,71.30
2019-03-23T08:32:53.978Z,71.30
2019-03-23T08:35:23.574Z,70.40
2019-03-23T08:37:53.111Z,70.60
2019-03-23T08:40:22.741Z,70.20
2019-03-23T08:42:53.563Z,70.00
2019-03-23T08:45:24.621Z,70.10
2019-03-23T08:47:55.670Z,69.90
2019-03-23T08:50:26.978Z,69.70
2019-03-23T08:52:58.011Z,69.90
2019-03-23T08:55:29.265Z,67.60
2019-03-23T08:58:00.292Z,67.80
2019-03-23T09:00:31.346Z,67.50
2019-03-23T09:03:03.750Z,67.80
2019-03-23T09:05:35.261Z,65.80
2019-03-23T09:08:06.321Z,65.90
2019-03-23T09:10:43.023Z,65.40
2019-03-23T09:13:14.471Z,63.60
2019-03-23T09:15:45.738Z,62.30
2019-03-23T09:18:17.228Z,61.60
2019-03-23T09:20:48.349Z,61.70
2019-03-23T09:23:19.492Z,60.60
2019-03-23T09:25:50.923Z,60.40
2019-03-23T09:28:21.936Z,60.60
2019-03-23T09:30:54.224Z,60.50
2019-03-23T09:33:25.703Z,60.80
2019-03-23T09:35:57.260Z,60.20
2019-03-23T09:38:28.611Z,59.60
2019-03-23T09:41:00.194Z,59.80
2019-03-23T09:43:31.314Z,59.80
2019-03-23T09:46:02.585Z,59.40
2019-03-23T09:48:33.716Z,59.20
2019-03-23T09:51:04.772Z,57.90
2019-03-23T09:53:35.806Z,57.40
2019-03-23T09:56:06.986Z,57.00
2019-03-23T09:58:38.455Z,56.50
2019-03-23T10:01:09.496Z,56.40
2019-03-23T10:03:42.790Z,55.40
2019-03-23T10:06:13.229Z,55.70
2019-03-23T10:08:46.333Z,55.60
2019-03-23T10:11:17.205Z,54.50
2019-03-23T10:13:48.585Z,53.70
2019-03-23T10:16:19.609Z,53.90
2019-03-23T10:18:51.809Z,53.80
2019-03-23T10:21:22.860Z,53.10
2019-03-23T10:23:54.663Z,52.80
2019-03-23T10:26:26.280Z,52.60
2019-03-23T10:28:57.366Z,51.20
2019-03-23T10:31:28.810Z,50.60
2019-03-23T10:34:00.225Z,51.10
2019-03-23T10:36:32.550Z,49.20
2019-03-23T10:39:05.886Z,47.70
2019-03-23T10:41:36.992Z,46.30
2019-03-23T10:44:08.029Z,46.50
2019-03-23T10:46:39.163Z,46.30
2019-03-23T10:49:10.242Z,45.30
2019-03-23T10:51:41.713Z,44.00
2019-03-23T10:54:12.884Z,43.60
2019-03-23T10:56:43.993Z,41.90
2019-03-23T10:59:15.489Z,41.90
2019-03-23T11:01:46.731Z,40.30
2019-03-23T11:04:17.841Z,41.00
2019-03-23T11:06:49.103Z,38.50
2019-03-23T11:09:20.181Z,39.00
2019-03-23T11:11:51.296Z,38.40
2019-03-23T11:14:22.306Z,38.40
2019-03-23T11:16:53.344Z,37.70
2019-03-23T11:19:24.464Z,35.90
2019-03-23T11:21:56.094Z,36.10
2019-03-23T11:24:27.528Z,36.50
2019-03-23T11:26:58.902Z,36.70
2019-03-23T11:29:30.623Z,35.90
2019-03-23T11:32:02.133Z,34.90
2019-03-23T11:34:33.521Z,33.60
2019-03-23T11:37:05.099Z,33.90
2019-03-23T11:39:36.161Z,33.60
2019-03-23T11:42:07.265Z,33.20
2019-03-23T11:44:38.397Z,32.70
2019-03-23T11:47:09.553Z,31.80
2019-03-23T11:49:40.576Z,32.60
2019-03-23T11:52:11.604Z,32.30
2019-03-23T11:54:42.652Z,33.00
2019-03-23T11:57:13.791Z,31.20
2019-03-23T11:59:45.183Z,31.50
2019-03-23T12:02:16.300Z,32.50
2019-03-23T12:04:47.506Z,31.80
2019-03-23T12:07:21.547Z,31.40
2019-03-23T12:09:52.585Z,30.70
2019-03-23T12:12:23.888Z,30.90
2019-03-23T12:14:55.241Z,30.70
2019-03-23T12:17:26.273Z,30.60
2019-03-23T12:19:57.740Z,31.10
2019-03-23T12:22:29.799Z,30.00
2019-03-23T12:25:00.885Z,29.50
2019-03-23T12:27:32.220Z,29.50
2019-03-23T12:30:07.579Z,29.30
2019-03-23T12:32:42.788Z,29.10
2019-03-23T12:35:13.873Z,29.30
2019-03-23T12:37:45.281Z,28.60
2019-03-23T12:40:16.465Z,27.60
2019-03-23T12:42:47.808Z,27.80
2019-03-23T12:45:18.852Z,28.00
2019-03-23T12:47:49.946Z,27.90
2019-03-23T12:50:21.069Z,27.60
2019-03-23T12:52:52.144Z,28.30
2019-03-23T12:55:23.231Z,27.60
2019-03-23T12:57:54.365Z,27.20
2019-03-23T13:00:26.370Z,26.60
2019-03-23T13:02:58.011Z,26.20
2019-03-23T13:05:29.831Z,26.60
2019-03-23T13:08:01.742Z,26.50
2019-03-23T13:10:33.156Z,26.80
2019-03-23T13:13:04.525Z,26.30
2019-03-23T13:15:35.606Z,26.00
2019-03-23T13:18:06.885Z,26.20
2019-03-23T13:20:38.279Z,25.70
2019-03-23T13:23:09.316Z,25.90
2019-03-23T13:25:40.501Z,25.80
2019-03-23T13:28:11.540Z,25.60
2019-03-23T13:30:42.566Z,24.60
2019-03-23T13:33:14.198Z,24.60
2019-03-23T13:35:45.670Z,24.50
2019-03-23T13:38:18.488Z,24.50
2019-03-23T13:40:49.775Z,24.40
2019-03-23T13:43:21.107Z,24.00
2019-03-23T13:45:52.230Z,23.80
2019-03-23T13:48:23.600Z,23.30
2019-03-23T13:50:54.610Z,23.10
2019-03-23T13:53:25.649Z,23.40
2019-03-23T13:55:56.678Z,23.00
2019-03-23T13:58:27.733Z,22.80
2019-03-23T14:00:58.828Z,22.70
2019-03-23T14:03:30.013Z,22.70
2019-03-23T14:06:01.613Z,22.40
2019-03-23T14:08:32.721Z,23.10
2019-03-23T14:11:03.961Z,22.80
2019-03-23T14:13:35.254Z,23.10
2019-03-23T14:16:06.265Z,23.00
2019-03-23T14:18:37.447Z,23.20
2019-03-23T14:21:08.552Z,23.20
2019-03-23T14:23:39.569Z,22.90
2019-03-23T14:26:10.593Z,22.70
2019-03-23T14:28:42.024Z,22.90
2019-03-23T14:31:13.331Z,22.10
2019-03-23T14:33:44.334Z,21.90
2019-03-23T14:36:15.769Z,22.30
2019-03-23T14:38:47.143Z,22.60
2019-03-23T14:41:18.226Z,23.40
2019-03-23T14:43:49.437Z,23.20
2019-03-23T14:46:20.735Z,23.40
2019-03-23T14:48:51.830Z,23.90
2019-03-23T14:51:22.933Z,24.10
2019-03-23T14:53:53.961Z,23.50
2019-03-23T14:56:25.064Z,23.00
2019-03-23T14:58:56.283Z,22.30
2019-03-23T15:01:28.786Z,21.70
2019-03-23T15:04:00.107Z,22.30
2019-03-23T15:06:33.408Z,21.80
2019-03-23T15:09:05.441Z,21.60
2019-03-23T15:11:36.626Z,22.00
2019-03-23T15:14:07.804Z,22.00
2019-03-23T15:16:38.809Z,21.60
2019-03-23T15:19:09.830Z,20.70
2019-03-23T15:21:40.919Z,20.50
2019-03-23T15:24:12.090Z,20.90
2019-03-23T15:26:43.224Z,20.70
2019-03-23T15:29:14.549Z,20.20
2019-03-23T15:31:45.601Z,20.10
2019-03-23T15:34:16.597Z,19.80
2019-03-23T15:36:47.908Z,20.20
2019-03-23T15:39:18.916Z,20.40
2019-03-23T15:41:49.933Z,20.80
2019-03-23T15:44:20.996Z,20.60
2019-03-23T15:46:52.012Z,21.10
2019-03-23T15:49:23.107Z,21.80
2019-03-23T15:51:54.116Z,22.30
2019-03-23T15:54:25.402Z,21.80
2019-03-23T15:56:56.784Z,21.70
2019-03-23T15:59:27.811Z,22.20
2019-03-23T16:01:58.914Z,22.00
2019-03-23T16:04:29.988Z,22.40
2019-03-23T16:07:01.083Z,23.20
2019-03-23T16:09:32.777Z,23.40
2019-03-23T16:12:04.108Z,24.10
2019-03-23T16:14:35.485Z,24.50
2019-03-23T16:17:06.544Z,23.70
2019-03-23T16:19:37.652Z,24.70
2019-03-23T16:22:08.712Z,24.40
2019-03-23T16:24:39.846Z,24.40
2019-03-23T16:27:10.857Z,24.70
2019-03-23T16:29:41.857Z,24.90
2019-03-23T16:32:12.917Z,25.00
2019-03-23T16:34:44.009Z,24.80
2019-03-23T16:37:15.099Z,25.20
2019-03-23T16:39:46.124Z,25.40
2019-03-23T16:42:17.103Z,25.60
2019-03-23T16:44:48.233Z,26.00
2019-03-23T16:47:19.259Z,26.10
2019-03-23T16:49:51.641Z,27.50
2019-03-23T16:52:22.737Z,27.70
2019-03-23T16:54:54.057Z,28.90
2019-03-23T16:57:25.219Z,28.90
2019-03-23T16:59:58.477Z,29.40
2019-03-23T17:02:30.328Z,30.00
2019-03-23T17:05:02.644Z,30.90
2019-03-23T17:07:33.704Z,31.50
2019-03-23T17:10:05.989Z,32.20
2019-03-23T17:12:36.995Z,32.20
2019-03-23T17:15:09.202Z,32.40
2019-03-23T17:17:40.209Z,33.30
2019-03-23T17:20:11.542Z,33.80
2019-03-23T17:22:42.592Z,35.10
2019-03-23T17:25:13.609Z,34.90
2019-03-23T17:27:44.645Z,34.80
2019-03-23T17:30:15.735Z,35.90
2019-03-23T17:32:46.728Z,36.50
2019-03-23T17:35:17.753Z,36.90
2019-03-23T17:37:48.822Z,37.20
2019-03-23T17:40:19.891Z,37.20
2019-03-23T17:42:50.947Z,38.00
2019-03-23T17:45:22.041Z,38.70
2019-03-23T17:47:53.255Z,38.80
2019-03-23T17:50:24.360Z,38.90
2019-03-23T17:52:55.465Z,39.10
2019-03-23T17:55:26.929Z,39.30
2019-03-23T17:57:58.170Z,40.40
2019-03-23T18:00:29.957Z,39.90
2019-03-23T18:03:01.324Z,40.30
2019-03-23T18:05:32.437Z,40.80
2019-03-23T18:08:03.431Z,41.60
2019-03-23T18:10:35.121Z,42.50
2019-03-23T18:13:15.966Z,43.40
2019-03-23T18:15:39.129Z,43.40
2019-03-23T18:18:10.169Z,43.60
2019-03-23T18:20:41.672Z,44.50
2019-03-23T18:23:12.681Z,44.90
2019-03-23T18:25:51.624Z,45.80
2019-03-23T18:28:31.456Z,46.20
2019-03-23T18:31:02.860Z,45.90
2019-03-23T18:33:32.388Z,45.80
2019-03-23T18:36:01.988Z,45.60
2019-03-23T18:38:31.602Z,45.90
2019-03-23T18:41:01.208Z,46.80
2019-03-23T18:43:30.757Z,46.50
2019-03-23T18:46:00.350Z,46.60
2019-03-23T18:48:29.895Z,47.00
2019-03-23T18:50:59.436Z,47.20
2019-03-23T18:53:28.970Z,47.40
